Time;durP1;ratioP1;P1;durP2;ratioP2;P2;SDS_P1;SDS_P2;PMS_P1;PMS_P2;Temp;Humidity;BMP_temperature;BMP_pressure;BME280_temperature;BME280_humidity;BME280_pressure;Samples;Min_cycle;Max_cycle;Signal;HPM_P1;HPM_P2
2022/06/27 00:01:45;;;;;;;2.57;2.37;;;;;;;;;;5102833;28;20202;-51
2022/06/27 00:04:11;;;;;;;2.80;2.60;;;;;;;;;;5101806;28;20265;-51
2022/06/27 00:06:37;;;;;;;2.70;2.50;;;;;;;;;;5100307;27;20585;-50
2022/06/27 00:09:04;;;;;;;3.17;2.60;;;;;;;;;;5081445;28;20179;-51
2022/06/27 00:11:30;;;;;;;2.80;2.60;;;;;;;;;;5101184;28;20183;-51
2022/06/27 00:13:56;;;;;;;2.97;2.50;;;;;;;;;;5084826;28;20214;-50
2022/06/27 00:16:22;;;;;;;2.60;2.40;;;;;;;;;;5099369;27;20597;-50
2022/06/27 00:18:48;;;;;;;2.50;2.30;;;;;;;;;;5094916;27;20631;-51
2022/06/27 00:21:14;;;;;;;3.03;2.70;;;;;;;;;;5085416;28;20206;-51
2022/06/27 00:23:41;;;;;;;3.10;2.90;;;;;;;;;;5104619;28;20179;-51
2022/06/27 00:26:08;;;;;;;2.57;2.37;;;;;;;;;;5101440;27;20179;-51
2022/06/27 00:28:34;;;;;;;2.80;2.60;;;;;;;;;;5100163;28;20300;-52
2022/06/27 00:31:01;;;;;;;2.50;2.30;;;;;;;;;;5100545;27;20188;-51
2022/06/27 00:33:27;;;;;;;2.80;2.60;;;;;;;;;;5100270;27;20181;-50
2022/06/27 00:35:53;;;;;;;2.67;2.47;;;;;;;;;;5105913;28;20613;-50
2022/06/27 00:38:19;;;;;;;2.90;2.60;;;;;;;;;;5100525;28;20179;-50
2022/06/27 00:40:45;;;;;;;2.50;2.30;;;;;;;;;;5101272;28;20188;-51
2022/06/27 00:43:12;;;;;;;2.50;2.40;;;;;;;;;;5081471;28;20240;-51
2022/06/27 00:45:38;;;;;;;2.73;2.53;;;;;;;;;;5099027;27;20173;-50
2022/06/27 00:48:04;;;;;;;3.20;3.00;;;;;;;;;;5097674;28;20258;-50
2022/06/27 00:50:31;;;;;;;2.90;2.70;;;;;;;;;;5098873;27;20204;-51
2022/06/27 00:52:57;;;;;;;3.33;3.03;;;;;;;;;;5093014;27;20291;-50
2022/06/27 00:55:24;;;;;;;2.70;2.50;;;;;;;;;;5100172;27;20289;-50
2022/06/27 00:57:50;;;;;;;2.83;2.60;;;;;;;;;;5100496;28;20193;-50
2022/06/27 01:00:16;;;;;;;2.70;2.50;;;;;;;;;;5078793;28;20918;-50
2022/06/27 01:02:42;;;;;;;2.80;2.60;;;;;;;;;;5101576;28;20262;-51
2022/06/27 01:05:11;;;;;;;3.10;2.90;;;;;;;;;;5104275;28;20654;-50
2022/06/27 01:07:39;;;;;;;3.30;2.80;;;;;;;;;;5096402;28;20244;-50
2022/06/27 01:10:05;;;;;;;2.70;2.50;;;;;;;;;;5101320;28;20639;-51
2022/06/27 01:12:32;;;;;;;3.77;2.60;;;;;;;;;;5101753;28;20267;-50
2022/06/27 01:14:58;;;;;;;3.03;2.83;;;;;;;;;;5103772;28;20814;-50
2022/06/27 01:17:25;;;;;;;2.73;2.53;;;;;;;;;;5102010;28;20635;-50
2022/06/27 01:19:51;;;;;;;2.50;2.33;;;;;;;;;;5103694;28;20210;-51
2022/06/27 01:22:18;;;;;;;2.53;2.33;;;;;;;;;;5101308;28;20216;-50
2022/06/27 01:24:44;;;;;;;3.00;2.70;;;;;;;;;;5106345;28;20169;-50
2022/06/27 01:27:10;;;;;;;2.83;2.63;;;;;;;;;;5096878;28;20172;-51
2022/06/27 01:29:37;;;;;;;2.83;2.63;;;;;;;;;;5088872;28;20304;-51
2022/06/27 01:32:03;;;;;;;2.60;2.40;;;;;;;;;;5061472;28;20190;-50
2022/06/27 01:34:30;;;;;;;3.07;2.87;;;;;;;;;;5064019;28;20628;-51
2022/06/27 01:36:56;;;;;;;2.90;2.70;;;;;;;;;;5060147;28;20178;-50
2022/06/27 01:39:23;;;;;;;2.77;2.57;;;;;;;;;;5065603;28;20564;-51
2022/06/27 01:41:50;;;;;;;4.57;3.17;;;;;;;;;;5061939;28;20208;-50
2022/06/27 01:44:17;;;;;;;3.63;3.10;;;;;;;;;;5063790;28;20265;-50
2022/06/27 01:46:50;;;;;;;3.50;3.20;;;;;;;;;;5063069;28;20649;-51
2022/06/27 01:49:17;;;;;;;3.30;3.03;;;;;;;;;;5062547;28;20183;-50
2022/06/27 01:51:44;;;;;;;3.10;2.90;;;;;;;;;;5061117;28;20219;-50
2022/06/27 01:54:11;;;;;;;3.07;2.87;;;;;;;;;;5063362;28;20632;-50
2022/06/27 01:56:38;;;;;;;3.37;3.07;;;;;;;;;;5055002;28;20181;-50
2022/06/27 01:59:04;;;;;;;3.10;2.90;;;;;;;;;;5065042;28;20729;-50
2022/06/27 02:01:31;;;;;;;3.70;2.93;;;;;;;;;;5060487;28;20186;-50
2022/06/27 02:03:59;;;;;;;3.30;3.10;;;;;;;;;;5062309;28;20661;-50
2022/06/27 02:06:26;;;;;;;3.23;2.93;;;;;;;;;;5062010;28;20177;-51
2022/06/27 02:08:52;;;;;;;3.37;3.07;;;;;;;;;;5059860;28;20186;-51
2022/06/27 02:11:19;;;;;;;4.13;3.30;;;;;;;;;;5062605;28;20178;-51
2022/06/27 02:13:45;;;;;;;3.57;3.27;;;;;;;;;;5063454;28;20183;-50
2022/06/27 02:16:13;;;;;;;3.80;3.43;;;;;;;;;;5064489;28;20182;-51
2022/06/27 02:18:40;;;;;;;3.53;3.27;;;;;;;;;;5058155;28;20187;-51
2022/06/27 02:21:07;;;;;;;3.97;3.67;;;;;;;;;;5064139;28;20184;-52
2022/06/27 02:23:33;;;;;;;3.37;3.07;;;;;;;;;;5064501;28;20207;-51
2022/06/27 02:26:10;;;;;;;3.37;3.07;;;;;;;;;;5064108;28;20653;-51
2022/06/27 02:28:43;;;;;;;4.87;3.10;;;;;;;;;;5041181;28;20529;-52
2022/06/27 02:31:11;;;;;;;3.70;3.40;;;;;;;;;;5060443;28;20605;-51
2022/06/27 02:33:41;;;;;;;3.20;2.90;;;;;;;;;;5065569;28;20515;-51
2022/06/27 02:36:08;;;;;;;4.93;3.50;;;;;;;;;;5063636;28;20685;-52
2022/06/27 02:38:35;;;;;;;3.10;2.90;;;;;;;;;;5063332;28;20229;-51
2022/06/27 02:41:02;;;;;;;3.73;3.43;;;;;;;;;;5065511;28;20310;-51
2022/06/27 02:43:29;;;;;;;3.43;3.20;;;;;;;;;;5063964;28;20250;-51
2022/06/27 02:45:56;;;;;;;3.63;3.33;;;;;;;;;;5064775;28;20183;-51
2022/06/27 02:48:24;;;;;;;4.73;3.60;;;;;;;;;;5063031;28;20188;-51
2022/06/27 02:50:54;;;;;;;3.57;3.27;;;;;;;;;;5061658;28;20199;-51
2022/06/27 02:53:24;;;;;;;3.43;3.13;;;;;;;;;;5060188;28;20188;-51
2022/06/27 02:55:52;;;;;;;4.00;3.60;;;;;;;;;;5059434;28;20535;-51
2022/06/27 02:58:20;;;;;;;4.00;3.70;;;;;;;;;;5060189;28;20492;-51
2022/06/27 03:00:48;;;;;;;4.40;3.93;;;;;;;;;;5065931;28;20651;-51
2022/06/27 03:03:15;;;;;;;4.53;4.20;;;;;;;;;;5061865;28;20228;-51
2022/06/27 03:06:00;;;;;;;4.20;3.63;;;;;;;;;;5062643;28;20542;-51
2022/06/27 03:08:35;;;;;;;3.80;3.50;;;;;;;;;;5058833;28;20195;-50
2022/06/27 03:11:01;;;;;;;4.00;3.60;;;;;;;;;;5052766;28;20193;-50
2022/06/27 03:13:27;;;;;;;3.70;3.50;;;;;;;;;;5064938;28;20200;-51
2022/06/27 03:15:53;;;;;;;4.53;4.13;;;;;;;;;;5071363;28;20227;-51
2022/06/27 03:18:19;;;;;;;6.20;5.80;;;;;;;;;;5060360;28;20173;-51
2022/06/27 03:20:45;;;;;;;3.77;3.47;;;;;;;;;;5057916;28;20191;-51
2022/06/27 03:23:12;;;;;;;3.70;3.40;;;;;;;;;;5065073;28;20560;-50
2022/06/27 03:25:39;;;;;;;3.67;3.37;;;;;;;;;;5059023;28;20194;-50
2022/06/27 03:28:05;;;;;;;4.20;3.90;;;;;;;;;;5053649;28;20231;-51
2022/06/27 03:30:31;;;;;;;4.83;3.70;;;;;;;;;;5061922;27;20267;-51
2022/06/27 03:32:57;;;;;;;3.90;3.57;;;;;;;;;;5057388;28;20186;-51
2022/06/27 03:35:23;;;;;;;3.90;3.57;;;;;;;;;;5056113;28;20776;-51
2022/06/27 03:37:49;;;;;;;3.60;3.30;;;;;;;;;;5058203;28;20264;-50
2022/06/27 03:40:15;;;;;;;5.40;5.10;;;;;;;;;;5063153;28;20557;-51
2022/06/27 03:42:41;;;;;;;4.70;3.27;;;;;;;;;;5065025;28;20643;-50
2022/06/27 03:45:07;;;;;;;3.80;3.50;;;;;;;;;;5062950;28;20303;-51
2022/06/27 03:47:45;;;;;;;3.47;3.20;;;;;;;;;;5059811;28;20633;-51
2022/06/27 03:50:13;;;;;;;4.37;3.20;;;;;;;;;;5067201;28;20164;-50
2022/06/27 03:52:39;;;;;;;4.43;3.50;;;;;;;;;;5047987;28;20177;-50
2022/06/27 03:55:07;;;;;;;4.27;3.47;;;;;;;;;;5060403;28;20174;-50
2022/06/27 03:57:33;;;;;;;3.30;3.00;;;;;;;;;;5058190;28;20203;-50
2022/06/27 03:59:59;;;;;;;3.70;3.40;;;;;;;;;;5042114;28;20194;-51
2022/06/27 04:02:27;;;;;;;4.07;3.77;;;;;;;;;;5055215;28;20196;-50
2022/06/27 04:04:53;;;;;;;3.60;3.30;;;;;;;;;;5062708;28;20181;-51
2022/06/27 04:07:19;;;;;;;5.90;5.50;;;;;;;;;;5061141;28;20184;-50
2022/06/27 04:09:45;;;;;;;3.83;3.53;;;;;;;;;;5064795;28;20181;-51
2022/06/27 04:12:12;;;;;;;3.83;3.53;;;;;;;;;;5061064;28;20293;-50
2022/06/27 04:14:38;;;;;;;4.10;3.50;;;;;;;;;;5065425;28;20263;-51
2022/06/27 04:17:04;;;;;;;4.17;3.20;;;;;;;;;;5063783;28;20181;-51
2022/06/27 04:19:30;;;;;;;4.00;3.60;;;;;;;;;;5062155;28;20665;-51
2022/06/27 04:21:56;;;;;;;3.20;3.00;;;;;;;;;;5062462;28;20687;-51
2022/06/27 04:24:22;;;;;;;2.90;2.70;;;;;;;;;;5063404;28;20177;-51
2022/06/27 04:26:48;;;;;;;3.80;3.50;;;;;;;;;;5062964;28;20331;-50
2022/06/27 04:29:15;;;;;;;4.80;4.40;;;;;;;;;;5065843;28;20220;-51
2022/06/27 04:31:41;;;;;;;3.67;3.00;;;;;;;;;;5100266;27;20187;-51
2022/06/27 04:34:07;;;;;;;3.03;2.83;;;;;;;;;;5097806;27;20890;-50
2022/06/27 04:36:33;;;;;;;3.50;3.20;;;;;;;;;;5081468;28;20603;-50
2022/06/27 04:38:59;;;;;;;3.53;3.23;;;;;;;;;;5100795;28;20186;-50
2022/06/27 04:41:26;;;;;;;3.80;3.50;;;;;;;;;;5101876;28;20197;-51
2022/06/27 04:43:53;;;;;;;3.23;3.00;;;;;;;;;;5097924;27;20183;-50
2022/06/27 04:46:19;;;;;;;4.93;4.53;;;;;;;;;;5104507;28;20258;-51
2022/06/27 04:48:46;;;;;;;3.33;2.93;;;;;;;;;;5098059;28;20262;-51
2022/06/27 04:51:14;;;;;;;4.63;3.13;;;;;;;;;;5104428;27;20199;-50
2022/06/27 04:53:41;;;;;;;4.97;3.03;;;;;;;;;;5109766;27;20189;-50
2022/06/27 04:56:08;;;;;;;3.13;2.80;;;;;;;;;;5087215;28;20692;-50
2022/06/27 04:58:34;;;;;;;3.20;3.00;;;;;;;;;;5103405;28;20253;-51
2022/06/27 05:01:01;;;;;;;4.23;3.83;;;;;;;;;;5102847;27;20562;-51
2022/06/27 05:03:27;;;;;;;4.73;3.37;;;;;;;;;;5104304;27;20730;-51
2022/06/27 05:05:53;;;;;;;3.73;3.40;;;;;;;;;;5111056;27;20250;-50
2022/06/27 05:08:20;;;;;;;3.37;3.07;;;;;;;;;;5105027;27;20645;-51
2022/06/27 05:10:47;;;;;;;3.20;3.00;;;;;;;;;;5103036;28;20221;-51
2022/06/27 05:13:13;;;;;;;3.73;3.37;;;;;;;;;;5105172;28;20698;-50
2022/06/27 05:15:39;;;;;;;2.83;2.63;;;;;;;;;;5105228;28;20260;-51
2022/06/27 05:18:06;;;;;;;3.40;3.10;;;;;;;;;;5106429;28;20218;-50
2022/06/27 05:20:32;;;;;;;3.50;3.30;;;;;;;;;;5093280;28;20187;-51
2022/06/27 05:23:00;;;;;;;3.47;3.17;;;;;;;;;;5098348;28;20218;-50
2022/06/27 05:25:26;;;;;;;3.17;2.97;;;;;;;;;;5103769;28;20177;-51
2022/06/27 05:27:54;;;;;;;5.33;3.17;;;;;;;;;;5100031;28;20297;-51
2022/06/27 05:30:23;;;;;;;3.10;2.90;;;;;;;;;;5097714;28;20245;-50
2022/06/27 05:32:49;;;;;;;3.40;3.00;;;;;;;;;;5099997;28;20215;-51
2022/06/27 05:35:15;;;;;;;3.20;2.93;;;;;;;;;;5102747;28;20208;-51
2022/06/27 05:37:44;;;;;;;3.88;3.30;;;;;;;;;;5075812;28;20427;-50
2022/06/27 05:40:10;;;;;;;3.03;2.80;;;;;;;;;;5099598;28;20178;-51
2022/06/27 05:42:36;;;;;;;3.30;3.00;;;;;;;;;;5099254;28;20216;-51
2022/06/27 05:45:03;;;;;;;3.23;3.00;;;;;;;;;;5101042;28;20204;-51
2022/06/27 05:47:30;;;;;;;3.43;3.23;;;;;;;;;;5107190;28;20532;-50
2022/06/27 05:49:58;;;;;;;3.50;3.20;;;;;;;;;;5109428;27;20188;-51
2022/06/27 05:52:25;;;;;;;3.70;3.40;;;;;;;;;;5109437;28;20179;-51
2022/06/27 05:54:52;;;;;;;3.10;2.90;;;;;;;;;;5124849;27;20203;-51
2022/06/27 05:57:19;;;;;;;3.67;3.37;;;;;;;;;;5110292;27;20176;-50
2022/06/27 05:59:46;;;;;;;3.07;2.87;;;;;;;;;;5110140;27;20179;-51
2022/06/27 06:02:12;;;;;;;3.70;3.40;;;;;;;;;;5107559;28;20547;-51
2022/06/27 06:04:39;;;;;;;3.87;3.50;;;;;;;;;;5107123;28;20198;-51
2022/06/27 06:07:05;;;;;;;5.07;3.83;;;;;;;;;;5107782;28;20605;-51
2022/06/27 06:09:33;;;;;;;3.80;3.50;;;;;;;;;;5111408;28;20182;-50
2022/06/27 06:11:59;;;;;;;3.80;3.40;;;;;;;;;;5108063;28;20240;-51
2022/06/27 06:14:26;;;;;;;3.60;3.40;;;;;;;;;;5113267;27;20190;-51
2022/06/27 06:16:52;;;;;;;5.23;4.73;;;;;;;;;;5104921;28;20172;-52
2022/06/27 06:19:19;;;;;;;9.33;6.63;;;;;;;;;;5104052;28;20778;-52
2022/06/27 06:21:45;;;;;;;6.90;6.30;;;;;;;;;;5107004;28;20195;-52
2022/06/27 06:24:11;;;;;;;10.10;7.70;;;;;;;;;;5110873;28;20171;-51
2022/06/27 06:26:37;;;;;;;8.47;7.40;;;;;;;;;;5105718;27;20159;-51
2022/06/27 06:29:14;;;;;;;7.07;6.47;;;;;;;;;;5106802;27;20167;-51
2022/06/27 06:31:43;;;;;;;8.13;7.33;;;;;;;;;;5108300;28;20230;-52
2022/06/27 06:34:10;;;;;;;7.53;6.57;;;;;;;;;;5108391;27;20215;-52
2022/06/27 06:36:38;;;;;;;6.73;6.13;;;;;;;;;;5089158;28;20177;-51
2022/06/27 06:39:05;;;;;;;5.93;5.43;;;;;;;;;;5091642;28;20163;-51
2022/06/27 06:41:32;;;;;;;7.83;7.07;;;;;;;;;;5103542;27;20243;-52
2022/06/27 06:43:59;;;;;;;7.67;6.87;;;;;;;;;;5102360;27;20277;-53
2022/06/27 06:46:26;;;;;;;8.07;6.67;;;;;;;;;;5099755;27;20175;-51
2022/06/27 06:49:05;;;;;;;7.80;7.00;;;;;;;;;;5106037;27;20190;-51
2022/06/27 06:51:34;;;;;;;7.60;6.90;;;;;;;;;;5104465;27;20190;-51
2022/06/27 06:54:00;;;;;;;8.90;6.90;;;;;;;;;;5106496;28;20182;-52
2022/06/27 06:56:28;;;;;;;8.43;6.30;;;;;;;;;;5100363;28;20180;-52
2022/06/27 06:58:54;;;;;;;6.97;6.10;;;;;;;;;;5105078;28;20227;-52
2022/06/27 07:01:22;;;;;;;7.13;6.47;;;;;;;;;;5106019;27;20191;-51
2022/06/27 07:03:49;;;;;;;6.80;6.27;;;;;;;;;;5113489;27;20256;-52
2022/06/27 07:06:17;;;;;;;6.80;5.63;;;;;;;;;;5109892;27;20625;-51
2022/06/27 07:08:46;;;;;;;7.03;6.00;;;;;;;;;;5102314;27;21112;-51
2022/06/27 07:11:12;;;;;;;6.53;5.93;;;;;;;;;;5100175;28;20175;-52
2022/06/27 07:13:39;;;;;;;7.17;6.47;;;;;;;;;;5103278;28;20204;-52
2022/06/27 07:16:05;;;;;;;6.37;5.73;;;;;;;;;;5099498;27;20591;-51
2022/06/27 07:18:33;;;;;;;7.93;6.07;;;;;;;;;;5107654;28;20608;-51
2022/06/27 07:21:00;;;;;;;6.17;5.67;;;;;;;;;;5099583;27;20184;-52
2022/06/27 07:23:26;;;;;;;7.13;6.53;;;;;;;;;;5105836;28;20209;-52
2022/06/27 07:25:53;;;;;;;7.27;6.57;;;;;;;;;;5106948;28;20966;-52
2022/06/27 07:28:22;;;;;;;9.60;7.20;;;;;;;;;;5105434;28;20180;-51
2022/06/27 07:30:49;;;;;;;9.40;7.77;;;;;;;;;;5082432;28;20537;-52
2022/06/27 07:33:16;;;;;;;8.70;7.60;;;;;;;;;;5079203;28;20636;-52
2022/06/27 07:35:43;;;;;;;13.20;8.80;;;;;;;;;;5094311;28;20188;-52
2022/06/27 07:38:09;;;;;;;11.00;9.00;;;;;;;;;;5091721;28;20303;-52
2022/06/27 07:40:36;;;;;;;8.83;7.93;;;;;;;;;;5090427;28;20172;-52
2022/06/27 07:43:03;;;;;;;8.83;7.93;;;;;;;;;;5079930;28;20204;-52
2022/06/27 07:45:29;;;;;;;10.37;7.47;;;;;;;;;;5078982;28;20229;-51
2022/06/27 07:47:55;;;;;;;8.57;7.67;;;;;;;;;;5087400;28;20232;-52
2022/06/27 07:50:37;;;;;;;10.97;7.90;;;;;;;;;;5065335;28;20432;-52
2022/06/27 07:53:12;;;;;;;8.60;7.70;;;;;;;;;;5078031;28;20919;-52
2022/06/27 07:55:40;;;;;;;10.63;7.00;;;;;;;;;;5066907;28;20190;-52
2022/06/27 07:58:07;;;;;;;8.17;7.37;;;;;;;;;;5084736;28;20182;-52
2022/06/27 08:00:33;;;;;;;8.17;6.60;;;;;;;;;;5086441;28;20241;-52
2022/06/27 08:03:36;;;;;;;8.40;7.60;;;;;;;;;;5086069;28;20199;-52
2022/06/27 08:05:47;;;;;;;8.03;6.60;;;;;;;;;;5089181;28;20199;-52
2022/06/27 08:08:13;;;;;;;7.70;7.00;;;;;;;;;;5080906;28;20188;-52
2022/06/27 08:10:39;;;;;;;8.07;6.20;;;;;;;;;;5068774;28;20603;-52
2022/06/27 08:13:06;;;;;;;8.00;7.30;;;;;;;;;;5085689;28;20673;-52
2022/06/27 08:15:41;;;;;;;9.30;8.53;;;;;;;;;;5084632;28;20184;-52
2022/06/27 08:18:08;;;;;;;8.90;8.03;;;;;;;;;;5078444;28;20446;-52
2022/06/27 08:20:42;;;;;;;9.53;8.60;;;;;;;;;;5077420;28;20183;-52
2022/06/27 08:23:08;;;;;;;8.83;7.93;;;;;;;;;;5081263;28;20228;-51
2022/06/27 08:25:35;;;;;;;9.50;8.67;;;;;;;;;;5096686;28;20657;-49
2022/06/27 08:28:01;;;;;;;11.40;8.40;;;;;;;;;;5077724;28;20723;-50
2022/06/27 08:30:28;;;;;;;7.97;7.20;;;;;;;;;;5083510;28;20614;-51
2022/06/27 08:32:55;;;;;;;8.33;7.53;;;;;;;;;;5078637;28;20570;-51
2022/06/27 08:35:22;;;;;;;7.50;6.70;;;;;;;;;;5071868;28;20176;-51
2022/06/27 08:37:52;;;;;;;8.93;7.77;;;;;;;;;;5068782;28;20250;-51
2022/06/27 08:40:19;;;;;;;9.47;8.50;;;;;;;;;;5085887;28;20662;-51
2022/06/27 08:42:46;;;;;;;9.83;8.97;;;;;;;;;;5088338;28;20688;-50
2022/06/27 08:45:17;;;;;;;11.00;8.50;;;;;;;;;;5080815;28;21071;-51
2022/06/27 08:47:43;;;;;;;7.90;7.10;;;;;;;;;;5085400;28;20329;-51
2022/06/27 08:50:11;;;;;;;8.70;7.90;;;;;;;;;;5081064;28;20197;-51
2022/06/27 08:52:40;;;;;;;9.03;8.13;;;;;;;;;;5079062;28;20184;-50
2022/06/27 08:55:09;;;;;;;10.33;8.07;;;;;;;;;;5078811;28;20272;-51
2022/06/27 08:57:41;;;;;;;8.27;7.57;;;;;;;;;;5074336;28;20391;-51
2022/06/27 09:00:08;;;;;;;7.70;7.00;;;;;;;;;;5084219;28;20875;-51
2022/06/27 09:02:42;;;;;;;8.13;7.30;;;;;;;;;;5075364;28;20200;-51
2022/06/27 09:05:29;;;;;;;9.07;8.20;;;;;;;;;;5055720;28;20175;-51
2022/06/27 09:08:00;;;;;;;9.13;8.23;;;;;;;;;;5077264;28;20168;-51
2022/06/27 09:10:26;;;;;;;10.47;7.90;;;;;;;;;;5084465;28;20206;-51
2022/06/27 09:12:58;;;;;;;9.20;8.07;;;;;;;;;;5062045;28;20186;-51
2022/06/27 09:15:29;;;;;;;8.70;7.90;;;;;;;;;;5084027;28;20176;-51
2022/06/27 09:18:00;;;;;;;10.37;9.07;;;;;;;;;;5080173;28;20190;-51
2022/06/27 09:20:45;;;;;;;10.57;9.47;;;;;;;;;;5064971;28;20179;-51
2022/06/27 09:23:32;;;;;;;9.83;8.83;;;;;;;;;;5084059;28;20253;-51
2022/06/27 09:26:12;;;;;;;10.97;9.73;;;;;;;;;;5090547;28;20358;-52
2022/06/27 09:28:57;;;;;;;10.77;9.67;;;;;;;;;;5082800;28;20178;-51
2022/06/27 09:31:26;;;;;;;10.83;9.70;;;;;;;;;;5081853;28;20734;-51
2022/06/27 09:34:05;;;;;;;10.50;9.50;;;;;;;;;;5085432;28;20179;-51
2022/06/27 09:36:32;;;;;;;10.73;9.40;;;;;;;;;;5086531;28;20632;-51
2022/06/27 09:39:01;;;;;;;10.73;8.73;;;;;;;;;;5083273;28;20263;-51
2022/06/27 09:41:30;;;;;;;10.63;9.53;;;;;;;;;;5096058;28;20169;-51
2022/06/27 09:44:01;;;;;;;11.27;10.00;;;;;;;;;;5088004;28;20290;-52
2022/06/27 09:46:31;;;;;;;10.97;9.20;;;;;;;;;;5078423;28;20268;-51
2022/06/27 09:48:58;;;;;;;8.93;8.03;;;;;;;;;;5088269;28;20586;-52
2022/06/27 09:51:25;;;;;;;8.40;7.60;;;;;;;;;;5084394;28;20202;-51
2022/06/27 09:53:53;;;;;;;8.20;7.40;;;;;;;;;;5061977;28;20177;-51
2022/06/27 09:56:20;;;;;;;9.47;8.50;;;;;;;;;;5061519;28;20201;-51
2022/06/27 09:58:46;;;;;;;10.07;9.07;;;;;;;;;;5083209;28;20538;-51
2022/06/27 10:01:12;;;;;;;12.07;10.83;;;;;;;;;;5092187;28;20178;-52
2022/06/27 10:03:40;;;;;;;12.50;11.20;;;;;;;;;;5068735;28;20713;-53
2022/06/27 10:06:09;;;;;;;12.87;11.60;;;;;;;;;;5078307;28;20192;-52
2022/06/27 10:08:36;;;;;;;10.83;9.77;;;;;;;;;;5078149;28;20242;-53
2022/06/27 10:11:02;;;;;;;11.33;9.97;;;;;;;;;;5083199;28;20217;-52
2022/06/27 10:13:29;;;;;;;11.50;10.40;;;;;;;;;;5077956;28;20175;-51
2022/06/27 10:15:56;;;;;;;11.50;9.53;;;;;;;;;;5064887;28;20229;-52
2022/06/27 10:18:23;;;;;;;11.13;9.60;;;;;;;;;;5083184;28;20180;-53
2022/06/27 10:20:51;;;;;;;14.20;11.00;;;;;;;;;;5080425;28;20220;-52
2022/06/27 10:23:18;;;;;;;10.80;9.80;;;;;;;;;;5084302;28;20193;-52
2022/06/27 10:25:48;;;;;;;10.97;9.87;;;;;;;;;;5073017;28;20177;-51
2022/06/27 10:28:14;;;;;;;12.50;10.00;;;;;;;;;;5069855;28;20171;-52
2022/06/27 10:30:42;;;;;;;11.97;9.57;;;;;;;;;;5077069;28;20729;-52
2022/06/27 10:33:20;;;;;;;10.40;8.00;;;;;;;;;;5082897;28;20172;-51
2022/06/27 10:35:57;;;;;;;7.63;6.93;;;;;;;;;;5083215;28;20180;-52
2022/06/27 10:38:27;;;;;;;6.40;5.53;;;;;;;;;;5081403;28;20183;-53
2022/06/27 10:40:54;;;;;;;7.80;6.27;;;;;;;;;;5083984;28;20244;-51
2022/06/27 10:43:38;;;;;;;6.43;5.40;;;;;;;;;;5086166;28;20557;-51
2022/06/27 10:46:07;;;;;;;6.37;5.57;;;;;;;;;;5068896;28;20180;-52
2022/06/27 10:48:35;;;;;;;9.77;5.23;;;;;;;;;;5076386;28;20255;-52
2022/06/27 10:51:19;;;;;;;6.73;6.13;;;;;;;;;;5080610;28;20755;-52
2022/06/27 10:53:46;;;;;;;6.50;5.77;;;;;;;;;;5085147;28;20517;-52
2022/06/27 10:56:44;;;;;;;7.20;5.40;;;;;;;;;;5087035;28;20180;-52
2022/06/27 10:59:13;;;;;;;5.70;5.17;;;;;;;;;;5047167;28;20227;-52
2022/06/27 11:01:41;;;;;;;5.40;4.90;;;;;;;;;;5082841;28;20685;-50
2022/06/27 11:04:07;;;;;;;5.37;4.80;;;;;;;;;;5082289;28;20187;-50
2022/06/27 11:06:33;;;;;;;4.77;4.37;;;;;;;;;;5078269;28;20229;-52
2022/06/27 11:08:59;;;;;;;5.23;4.70;;;;;;;;;;5079962;28;20577;-50
2022/06/27 11:11:26;;;;;;;6.73;4.87;;;;;;;;;;5080544;28;20592;-51
2022/06/27 11:13:54;;;;;;;5.73;5.23;;;;;;;;;;5078649;28;20207;-48
2022/06/27 11:16:21;;;;;;;5.37;4.93;;;;;;;;;;5086323;28;20757;-48
2022/06/27 11:18:49;;;;;;;5.10;4.60;;;;;;;;;;5084640;28;20211;-49
2022/06/27 11:21:19;;;;;;;6.33;5.03;;;;;;;;;;5082930;28;20187;-48
2022/06/27 11:23:49;;;;;;;5.83;5.27;;;;;;;;;;5080389;28;20640;-48
2022/06/27 11:26:16;;;;;;;7.27;5.40;;;;;;;;;;5082952;28;20833;-51
2022/06/27 11:34:12;;;;;;;7.80;5.93;;;;;;;;;;5100029;28;20280;-48
2022/06/27 11:36:39;;;;;;;5.27;4.77;;;;;;;;;;5107412;28;20175;-48
2022/06/27 11:39:05;;;;;;;6.07;5.27;;;;;;;;;;5108774;28;20176;-47
2022/06/27 11:41:31;;;;;;;6.97;6.00;;;;;;;;;;5089931;28;20179;-48
2022/06/27 11:43:58;;;;;;;7.97;6.67;;;;;;;;;;5108857;28;20236;-47
2022/06/27 11:46:49;;;;;;;7.70;6.90;;;;;;;;;;5107399;28;20654;-48
2022/06/27 11:49:16;;;;;;;6.73;5.97;;;;;;;;;;5108222;28;20665;-47
2022/06/27 11:51:43;;;;;;;9.20;7.13;;;;;;;;;;5106923;28;20214;-47
2022/06/27 11:54:11;;;;;;;4.70;4.30;;;;;;;;;;5108394;28;20236;-47
2022/06/27 11:56:44;;;;;;;5.27;4.73;;;;;;;;;;5089807;28;20186;-48
2022/06/27 11:59:12;;;;;;;6.50;5.60;;;;;;;;;;5107770;28;20206;-49
2022/06/27 12:01:50;;;;;;;4.73;4.23;;;;;;;;;;5108038;28;20184;-47
2022/06/27 12:04:17;;;;;;;7.10;6.47;;;;;;;;;;5108495;28;20170;-49
2022/06/27 12:06:44;;;;;;;4.50;4.10;;;;;;;;;;5087840;28;20165;-48
2022/06/27 12:09:10;;;;;;;6.13;5.53;;;;;;;;;;5108443;28;20172;-49
2022/06/27 12:11:36;;;;;;;5.63;4.30;;;;;;;;;;5108101;28;20154;-49
2022/06/27 12:14:03;;;;;;;6.77;5.00;;;;;;;;;;5108233;28;20184;-48
2022/06/27 12:16:43;;;;;;;4.20;3.90;;;;;;;;;;5108156;28;20284;-48
2022/06/27 12:19:10;;;;;;;4.40;3.97;;;;;;;;;;5107562;28;20186;-49
2022/06/27 12:21:36;;;;;;;6.43;4.97;;;;;;;;;;5106554;28;20246;-48
2022/06/27 12:24:02;;;;;;;4.73;4.17;;;;;;;;;;5088792;28;20203;-49
2022/06/27 12:26:28;;;;;;;4.57;3.57;;;;;;;;;;5089175;28;20167;-49
2022/06/27 12:28:54;;;;;;;5.83;5.33;;;;;;;;;;5089154;28;20250;-49
2022/06/27 12:31:20;;;;;;;7.30;6.10;;;;;;;;;;5105275;28;20218;-47
2022/06/27 12:33:46;;;;;;;6.70;5.97;;;;;;;;;;5107874;28;20176;-49
2022/06/27 12:36:14;;;;;;;5.20;4.73;;;;;;;;;;5105899;28;20170;-48
2022/06/27 12:38:41;;;;;;;7.40;6.63;;;;;;;;;;5107473;28;20285;-49
2022/06/27 12:41:14;;;;;;;5.50;5.00;;;;;;;;;;5107237;28;20175;-49
2022/06/27 12:43:41;;;;;;;5.23;4.80;;;;;;;;;;5107318;28;20214;-48
2022/06/27 12:46:07;;;;;;;4.60;4.27;;;;;;;;;;5088760;28;20186;-49
2022/06/27 12:48:33;;;;;;;8.53;6.33;;;;;;;;;;5107032;28;20172;-48
2022/06/27 12:51:00;;;;;;;5.73;5.20;;;;;;;;;;5107219;28;20217;-49
2022/06/27 12:53:27;;;;;;;6.53;6.03;;;;;;;;;;5106778;28;20171;-49
2022/06/27 12:55:53;;;;;;;6.07;5.37;;;;;;;;;;5106537;28;20168;-48
2022/06/27 12:58:20;;;;;;;8.53;6.07;;;;;;;;;;5105379;28;20196;-49
2022/06/27 13:00:46;;;;;;;12.70;11.50;;;;;;;;;;5088184;28;20182;-48
2022/06/27 13:03:13;;;;;;;11.57;10.47;;;;;;;;;;5090656;28;20277;-48
2022/06/27 13:05:39;;;;;;;8.50;7.70;;;;;;;;;;5089339;28;20185;-48
2022/06/27 13:08:06;;;;;;;8.70;7.80;;;;;;;;;;5105510;28;20510;-49
2022/06/27 13:10:32;;;;;;;8.37;7.63;;;;;;;;;;5107537;28;20268;-49
2022/06/27 13:12:58;;;;;;;7.40;6.80;;;;;;;;;;5106620;28;20202;-49
2022/06/27 13:15:24;;;;;;;7.17;6.57;;;;;;;;;;5107631;28;20178;-48
2022/06/27 13:17:50;;;;;;;7.47;6.87;;;;;;;;;;5106894;28;20246;-48
2022/06/27 13:20:16;;;;;;;10.47;9.10;;;;;;;;;;5107199;28;20511;-49
2022/06/27 13:22:43;;;;;;;7.77;7.07;;;;;;;;;;5105404;28;20642;-48
2022/06/27 13:25:10;;;;;;;9.53;8.73;;;;;;;;;;5107172;28;20180;-48
2022/06/27 13:27:36;;;;;;;8.77;7.40;;;;;;;;;;5106787;28;20164;-49
2022/06/27 13:30:04;;;;;;;8.60;7.90;;;;;;;;;;5104939;28;20263;-49
2022/06/27 13:32:30;;;;;;;8.93;8.13;;;;;;;;;;5105906;28;20224;-49
2022/06/27 13:34:57;;;;;;;8.37;7.67;;;;;;;;;;5107084;28;20180;-49
2022/06/27 13:37:23;;;;;;;8.30;7.70;;;;;;;;;;5105579;28;20249;-48
2022/06/27 13:39:49;;;;;;;8.27;7.57;;;;;;;;;;5106539;28;20622;-49
2022/06/27 13:42:16;;;;;;;9.37;8.57;;;;;;;;;;5106619;28;20255;-48
2022/06/27 13:44:42;;;;;;;8.40;7.70;;;;;;;;;;5105893;28;20180;-49
2022/06/27 13:47:08;;;;;;;8.77;7.97;;;;;;;;;;5106243;28;20529;-49
2022/06/27 13:49:34;;;;;;;8.10;7.47;;;;;;;;;;5088578;28;20291;-48
2022/06/27 13:52:01;;;;;;;8.43;7.83;;;;;;;;;;5105691;28;20692;-48
2022/06/27 13:54:27;;;;;;;8.37;7.53;;;;;;;;;;5106315;28;20172;-49
2022/06/27 13:56:53;;;;;;;8.30;7.60;;;;;;;;;;5106399;28;20165;-48
2022/06/27 13:59:19;;;;;;;9.47;8.77;;;;;;;;;;5106747;28;20179;-48
2022/06/27 14:01:46;;;;;;;8.57;7.77;;;;;;;;;;5105926;28;20176;-49
2022/06/27 14:04:12;;;;;;;10.40;9.60;;;;;;;;;;5105918;28;20623;-48
2022/06/27 14:09:23;;;;;;;8.07;7.37;;;;;;;;;;5106235;28;20281;-49
2022/06/27 14:11:56;;;;;;;8.60;7.90;;;;;;;;;;5110476;28;20177;-48
2022/06/27 14:14:29;;;;;;;8.53;7.93;;;;;;;;;;5109860;28;20172;-49
2022/06/27 14:16:55;;;;;;;7.60;6.90;;;;;;;;;;5110143;28;20171;-49
2022/06/27 14:19:22;;;;;;;7.60;6.90;;;;;;;;;;5109673;28;20172;-48
2022/06/27 14:21:49;;;;;;;7.30;6.70;;;;;;;;;;5108579;28;20179;-49
2022/06/27 14:24:15;;;;;;;7.73;7.03;;;;;;;;;;5109538;28;20205;-48
2022/06/27 14:26:42;;;;;;;6.60;6.03;;;;;;;;;;5110758;28;20272;-48
2022/06/27 14:29:08;;;;;;;6.30;5.50;;;;;;;;;;5110150;28;20177;-49
2022/06/27 14:31:55;;;;;;;6.47;5.97;;;;;;;;;;5106995;28;20229;-48
2022/06/27 14:34:22;;;;;;;5.97;5.47;;;;;;;;;;5108803;28;20166;-48
2022/06/27 14:36:48;;;;;;;5.33;4.80;;;;;;;;;;5108493;28;20219;-48
2022/06/27 14:39:14;;;;;;;4.97;4.47;;;;;;;;;;5109431;28;20563;-49
2022/06/27 14:41:41;;;;;;;4.27;3.93;;;;;;;;;;5109585;28;20175;-49
2022/06/27 14:44:11;;;;;;;3.57;3.10;;;;;;;;;;5109130;28;20237;-49
2022/06/27 14:46:37;;;;;;;5.07;3.00;;;;;;;;;;5109262;28;20743;-49
2022/06/27 14:49:03;;;;;;;2.60;2.40;;;;;;;;;;5108477;28;20431;-48
2022/06/27 14:51:31;;;;;;;4.00;2.90;;;;;;;;;;5107366;28;20278;-50
2022/06/27 14:53:57;;;;;;;4.73;2.63;;;;;;;;;;5108403;28;20176;-51